sensor_id;sensor_type;location;lat;lon;timestamp;P1;durP1;ratioP1;P2;durP2;ratioP2
8704;SDS011;4389;41.932;25.904;2022-12-11T00:01:47;29.50;;;7.23;;
8704;SDS011;4389;41.932;25.904;2022-12-11T00:04:14;28.57;;;6.97;;
8704;SDS011;4389;41.932;25.904;2022-12-11T00:06:42;23.77;;;5.90;;
8704;SDS011;4389;41.932;25.904;2022-12-11T00:09:09;25.03;;;6.43;;
8704;SDS011;4389;41.932;25.904;2022-12-11T00:11:36;27.43;;;6.13;;
8704;SDS011;4389;41.932;25.904;2022-12-11T00:14:04;23.97;;;6.40;;
8704;SDS011;4389;41.932;25.904;2022-12-11T00:16:31;29.57;;;6.77;;
8704;SDS011;4389;41.932;25.904;2022-12-11T00:18:58;27.93;;;5.97;;
8704;SDS011;4389;41.932;25.904;2022-12-11T00:21:25;24.90;;;5.27;;
8704;SDS011;4389;41.932;25.904;2022-12-11T00:23:52;28.03;;;6.23;;
8704;SDS011;4389;41.932;25.904;2022-12-11T00:26:19;21.50;;;5.63;;
8704;SDS011;4389;41.932;25.904;2022-12-11T00:28:46;18.93;;;5.80;;
8704;SDS011;4389;41.932;25.904;2022-12-11T00:31:15;25.57;;;6.07;;
8704;SDS011;4389;41.932;25.904;2022-12-11T00:33:43;23.10;;;5.07;;
8704;SDS011;4389;41.932;25.904;2022-12-11T00:36:13;27.07;;;5.60;;
8704;SDS011;4389;41.932;25.904;2022-12-11T00:38:43;20.20;;;5.73;;
8704;SDS011;4389;41.932;25.904;2022-12-11T00:41:10;21.77;;;5.03;;
8704;SDS011;4389;41.932;25.904;2022-12-11T00:43:37;22.70;;;5.10;;
8704;SDS011;4389;41.932;25.904;2022-12-11T00:46:04;23.80;;;5.03;;
8704;SDS011;4389;41.932;25.904;2022-12-11T00:48:32;29.87;;;6.33;;
8704;SDS011;4389;41.932;25.904;2022-12-11T00:50:59;22.13;;;5.53;;
8704;SDS011;4389;41.932;25.904;2022-12-11T00:53:26;18.57;;;5.50;;
8704;SDS011;4389;41.932;25.904;2022-12-11T00:55:53;20.60;;;4.97;;
8704;SDS011;4389;41.932;25.904;2022-12-11T00:58:20;24.90;;;5.93;;
8704;SDS011;4389;41.932;25.904;2022-12-11T01:00:47;16.00;;;4.83;;
8704;SDS011;4389;41.932;25.904;2022-12-11T01:03:14;23.73;;;5.97;;
8704;SDS011;4389;41.932;25.904;2022-12-11T01:05:50;18.50;;;5.93;;
8704;SDS011;4389;41.932;25.904;2022-12-11T01:08:18;20.23;;;5.70;;
8704;SDS011;4389;41.932;25.904;2022-12-11T01:10:44;18.03;;;5.80;;
8704;SDS011;4389;41.932;25.904;2022-12-11T01:13:10;15.60;;;4.47;;
8704;SDS011;4389;41.932;25.904;2022-12-11T01:15:38;13.13;;;4.63;;
8704;SDS011;4389;41.932;25.904;2022-12-11T01:18:07;21.10;;;5.50;;
8704;SDS011;4389;41.932;25.904;2022-12-11T01:20:34;21.50;;;5.60;;
8704;SDS011;4389;41.932;25.904;2022-12-11T01:23:04;17.47;;;5.47;;
8704;SDS011;4389;41.932;25.904;2022-12-11T01:25:31;21.37;;;5.07;;
8704;SDS011;4389;41.932;25.904;2022-12-11T01:28:02;23.10;;;5.03;;
8704;SDS011;4389;41.932;25.904;2022-12-11T01:30:29;14.23;;;4.33;;
8704;SDS011;4389;41.932;25.904;2022-12-11T01:32:56;17.17;;;5.23;;
8704;SDS011;4389;41.932;25.904;2022-12-11T01:35:24;16.70;;;4.93;;
8704;SDS011;4389;41.932;25.904;2022-12-11T01:37:51;18.50;;;5.37;;
8704;SDS011;4389;41.932;25.904;2022-12-11T01:40:20;16.97;;;5.20;;
8704;SDS011;4389;41.932;25.904;2022-12-11T01:42:47;17.17;;;5.83;;
8704;SDS011;4389;41.932;25.904;2022-12-11T01:45:22;23.97;;;5.27;;
8704;SDS011;4389;41.932;25.904;2022-12-11T01:47:52;14.23;;;4.33;;
8704;SDS011;4389;41.932;25.904;2022-12-11T01:50:25;13.80;;;4.47;;
8704;SDS011;4389;41.932;25.904;2022-12-11T01:52:53;24.20;;;4.97;;
8704;SDS011;4389;41.932;25.904;2022-12-11T01:55:22;20.10;;;8.40;;
8704;SDS011;4389;41.932;25.904;2022-12-11T01:57:49;16.57;;;5.53;;
8704;SDS011;4389;41.932;25.904;2022-12-11T02:00:18;20.50;;;5.23;;
8704;SDS011;4389;41.932;25.904;2022-12-11T02:02:45;14.23;;;4.10;;
8704;SDS011;4389;41.932;25.904;2022-12-11T02:05:12;16.30;;;4.80;;
8704;SDS011;4389;41.932;25.904;2022-12-11T02:07:40;24.17;;;5.03;;
8704;SDS011;4389;41.932;25.904;2022-12-11T02:10:10;17.90;;;4.90;;
8704;SDS011;4389;41.932;25.904;2022-12-11T02:12:40;19.83;;;5.20;;
8704;SDS011;4389;41.932;25.904;2022-12-11T02:15:16;18.10;;;4.97;;
8704;SDS011;4389;41.932;25.904;2022-12-11T02:17:49;18.93;;;5.43;;
8704;SDS011;4389;41.932;25.904;2022-12-11T02:20:22;18.40;;;5.10;;
8704;SDS011;4389;41.932;25.904;2022-12-11T02:22:55;28.97;;;5.20;;
8704;SDS011;4389;41.932;25.904;2022-12-11T02:25:46;22.27;;;5.90;;
8704;SDS011;4389;41.932;25.904;2022-12-11T02:28:22;17.17;;;5.03;;
8704;SDS011;4389;41.932;25.904;2022-12-11T02:30:56;14.70;;;4.20;;
8704;SDS011;4389;41.932;25.904;2022-12-11T02:33:30;16.17;;;4.90;;
8704;SDS011;4389;41.932;25.904;2022-12-11T02:36:02;17.57;;;5.30;;
8704;SDS011;4389;41.932;25.904;2022-12-11T02:38:31;18.83;;;4.83;;
8704;SDS011;4389;41.932;25.904;2022-12-11T02:41:01;21.10;;;4.80;;
8704;SDS011;4389;41.932;25.904;2022-12-11T02:43:31;17.23;;;4.77;;
8704;SDS011;4389;41.932;25.904;2022-12-11T02:46:00;18.63;;;5.27;;
8704;SDS011;4389;41.932;25.904;2022-12-11T02:48:29;20.47;;;4.37;;
8704;SDS011;4389;41.932;25.904;2022-12-11T02:50:58;21.70;;;4.57;;
8704;SDS011;4389;41.932;25.904;2022-12-11T02:53:27;21.10;;;4.70;;
8704;SDS011;4389;41.932;25.904;2022-12-11T02:55:57;22.27;;;5.30;;
8704;SDS011;4389;41.932;25.904;2022-12-11T02:58:31;20.43;;;5.47;;
8704;SDS011;4389;41.932;25.904;2022-12-11T03:00:59;21.50;;;4.33;;
8704;SDS011;4389;41.932;25.904;2022-12-11T03:03:26;14.73;;;4.47;;
8704;SDS011;4389;41.932;25.904;2022-12-11T03:05:54;22.77;;;8.97;;
8704;SDS011;4389;41.932;25.904;2022-12-11T03:08:21;21.73;;;4.07;;
8704;SDS011;4389;41.932;25.904;2022-12-11T03:10:48;18.37;;;4.33;;
8704;SDS011;4389;41.932;25.904;2022-12-11T03:13:16;15.63;;;3.90;;
8704;SDS011;4389;41.932;25.904;2022-12-11T03:15:48;16.73;;;4.20;;
8704;SDS011;4389;41.932;25.904;2022-12-11T03:18:25;20.27;;;4.23;;
8704;SDS011;4389;41.932;25.904;2022-12-11T03:20:58;18.83;;;4.53;;
8704;SDS011;4389;41.932;25.904;2022-12-11T03:23:31;14.83;;;4.70;;
8704;SDS011;4389;41.932;25.904;2022-12-11T03:26:05;19.27;;;4.63;;
8704;SDS011;4389;41.932;25.904;2022-12-11T03:28:36;21.10;;;5.27;;
8704;SDS011;4389;41.932;25.904;2022-12-11T03:31:11;20.63;;;4.80;;
8704;SDS011;4389;41.932;25.904;2022-12-11T03:33:42;19.03;;;5.10;;
8704;SDS011;4389;41.932;25.904;2022-12-11T03:36:15;16.73;;;4.53;;
8704;SDS011;4389;41.932;25.904;2022-12-11T03:38:46;25.73;;;5.10;;
8704;SDS011;4389;41.932;25.904;2022-12-11T03:41:17;22.77;;;6.07;;
8704;SDS011;4389;41.932;25.904;2022-12-11T03:43:46;17.40;;;4.87;;
8704;SDS011;4389;41.932;25.904;2022-12-11T03:46:15;19.50;;;5.30;;
8704;SDS011;4389;41.932;25.904;2022-12-11T03:48:46;20.57;;;4.33;;
8704;SDS011;4389;41.932;25.904;2022-12-11T03:51:15;23.43;;;4.53;;
8704;SDS011;4389;41.932;25.904;2022-12-11T03:53:43;15.20;;;5.03;;
8704;SDS011;4389;41.932;25.904;2022-12-11T03:56:12;19.97;;;4.80;;
8704;SDS011;4389;41.932;25.904;2022-12-11T03:58:41;13.63;;;5.47;;
8704;SDS011;4389;41.932;25.904;2022-12-11T04:01:09;17.93;;;4.90;;
8704;SDS011;4389;41.932;25.904;2022-12-11T04:03:38;14.07;;;4.70;;
8704;SDS011;4389;41.932;25.904;2022-12-11T04:06:05;16.37;;;4.93;;
8704;SDS011;4389;41.932;25.904;2022-12-11T04:08:33;18.13;;;4.37;;
8704;SDS011;4389;41.932;25.904;2022-12-11T04:11:01;20.33;;;4.70;;
8704;SDS011;4389;41.932;25.904;2022-12-11T04:13:46;18.40;;;6.23;;
8704;SDS011;4389;41.932;25.904;2022-12-11T04:16:33;23.70;;;5.03;;
8704;SDS011;4389;41.932;25.904;2022-12-11T04:19:00;19.73;;;4.53;;
8704;SDS011;4389;41.932;25.904;2022-12-11T04:21:45;22.10;;;4.40;;
8704;SDS011;4389;41.932;25.904;2022-12-11T04:24:29;15.30;;;5.70;;
8704;SDS011;4389;41.932;25.904;2022-12-11T04:26:56;22.73;;;5.23;;
8704;SDS011;4389;41.932;25.904;2022-12-11T04:29:22;18.10;;;4.67;;
8704;SDS011;4389;41.932;25.904;2022-12-11T04:31:49;18.80;;;6.67;;
8704;SDS011;4389;41.932;25.904;2022-12-11T04:34:17;20.83;;;5.60;;
8704;SDS011;4389;41.932;25.904;2022-12-11T04:36:44;21.53;;;5.70;;
8704;SDS011;4389;41.932;25.904;2022-12-11T04:39:11;16.33;;;4.73;;
8704;SDS011;4389;41.932;25.904;2022-12-11T04:41:38;27.07;;;5.07;;
8704;SDS011;4389;41.932;25.904;2022-12-11T04:44:05;20.97;;;5.33;;
8704;SDS011;4389;41.932;25.904;2022-12-11T04:46:32;19.07;;;5.17;;
8704;SDS011;4389;41.932;25.904;2022-12-11T04:49:00;19.07;;;5.73;;
8704;SDS011;4389;41.932;25.904;2022-12-11T04:51:28;19.93;;;5.03;;
8704;SDS011;4389;41.932;25.904;2022-12-11T04:53:56;20.33;;;6.30;;
8704;SDS011;4389;41.932;25.904;2022-12-11T04:56:23;20.57;;;5.27;;
8704;SDS011;4389;41.932;25.904;2022-12-11T04:58:50;22.30;;;6.40;;
8704;SDS011;4389;41.932;25.904;2022-12-11T05:01:18;23.30;;;5.80;;
8704;SDS011;4389;41.932;25.904;2022-12-11T05:03:46;23.57;;;6.67;;
8704;SDS011;4389;41.932;25.904;2022-12-11T05:06:13;20.33;;;7.27;;
8704;SDS011;4389;41.932;25.904;2022-12-11T05:08:42;20.80;;;6.07;;
8704;SDS011;4389;41.932;25.904;2022-12-11T05:11:10;20.77;;;6.97;;
8704;SDS011;4389;41.932;25.904;2022-12-11T05:13:39;24.77;;;5.63;;
8704;SDS011;4389;41.932;25.904;2022-12-11T05:16:06;15.07;;;5.87;;
8704;SDS011;4389;41.932;25.904;2022-12-11T05:18:34;14.87;;;5.63;;
8704;SDS011;4389;41.932;25.904;2022-12-11T05:21:02;23.00;;;6.13;;
8704;SDS011;4389;41.932;25.904;2022-12-11T05:23:30;18.40;;;5.40;;
8704;SDS011;4389;41.932;25.904;2022-12-11T05:25:59;17.57;;;5.83;;
8704;SDS011;4389;41.932;25.904;2022-12-11T05:28:28;14.97;;;4.60;;
8704;SDS011;4389;41.932;25.904;2022-12-11T05:31:00;15.23;;;4.47;;
8704;SDS011;4389;41.932;25.904;2022-12-11T05:33:28;13.77;;;4.57;;
8704;SDS011;4389;41.932;25.904;2022-12-11T05:35:55;19.47;;;5.30;;
8704;SDS011;4389;41.932;25.904;2022-12-11T05:38:22;20.67;;;6.60;;
8704;SDS011;4389;41.932;25.904;2022-12-11T05:40:54;13.17;;;4.90;;
8704;SDS011;4389;41.932;25.904;2022-12-11T05:43:23;12.10;;;4.53;;
8704;SDS011;4389;41.932;25.904;2022-12-11T05:45:50;21.13;;;4.80;;
8704;SDS011;4389;41.932;25.904;2022-12-11T05:48:17;13.87;;;4.33;;
8704;SDS011;4389;41.932;25.904;2022-12-11T05:50:54;16.30;;;5.63;;
8704;SDS011;4389;41.932;25.904;2022-12-11T05:53:22;15.33;;;4.33;;
8704;SDS011;4389;41.932;25.904;2022-12-11T05:55:49;22.10;;;4.60;;
8704;SDS011;4389;41.932;25.904;2022-12-11T05:58:16;17.63;;;4.70;;
8704;SDS011;4389;41.932;25.904;2022-12-11T06:00:45;15.50;;;5.10;;
8704;SDS011;4389;41.932;25.904;2022-12-11T06:03:12;21.00;;;5.23;;
8704;SDS011;4389;41.932;25.904;2022-12-11T06:05:39;20.30;;;4.73;;
8704;SDS011;4389;41.932;25.904;2022-12-11T06:08:07;15.90;;;4.43;;
8704;SDS011;4389;41.932;25.904;2022-12-11T06:10:34;15.90;;;4.73;;
8704;SDS011;4389;41.932;25.904;2022-12-11T06:13:01;14.47;;;4.47;;
8704;SDS011;4389;41.932;25.904;2022-12-11T06:15:28;16.47;;;4.90;;
8704;SDS011;4389;41.932;25.904;2022-12-11T06:17:56;17.67;;;5.53;;
8704;SDS011;4389;41.932;25.904;2022-12-11T06:20:23;15.63;;;4.90;;
8704;SDS011;4389;41.932;25.904;2022-12-11T06:22:50;19.27;;;5.07;;
8704;SDS011;4389;41.932;25.904;2022-12-11T06:25:17;20.53;;;5.60;;
8704;SDS011;4389;41.932;25.904;2022-12-11T06:27:44;16.53;;;6.17;;
8704;SDS011;4389;41.932;25.904;2022-12-11T06:30:11;16.17;;;6.67;;
8704;SDS011;4389;41.932;25.904;2022-12-11T06:32:38;19.13;;;6.13;;
8704;SDS011;4389;41.932;25.904;2022-12-11T06:35:06;12.57;;;4.73;;
8704;SDS011;4389;41.932;25.904;2022-12-11T06:37:34;11.47;;;5.20;;
8704;SDS011;4389;41.932;25.904;2022-12-11T06:40:01;15.37;;;5.67;;
8704;SDS011;4389;41.932;25.904;2022-12-11T06:42:28;18.93;;;6.17;;
8704;SDS011;4389;41.932;25.904;2022-12-11T06:44:55;19.67;;;6.63;;
8704;SDS011;4389;41.932;25.904;2022-12-11T06:47:24;8.47;;;3.83;;
8704;SDS011;4389;41.932;25.904;2022-12-11T06:49:51;12.07;;;4.27;;
8704;SDS011;4389;41.932;25.904;2022-12-11T06:52:21;9.57;;;2.73;;
8704;SDS011;4389;41.932;25.904;2022-12-11T06:54:48;14.97;;;3.10;;
8704;SDS011;4389;41.932;25.904;2022-12-11T06:57:15;12.07;;;3.47;;
8704;SDS011;4389;41.932;25.904;2022-12-11T06:59:43;10.77;;;4.07;;
8704;SDS011;4389;41.932;25.904;2022-12-11T07:02:10;9.87;;;4.10;;
8704;SDS011;4389;41.932;25.904;2022-12-11T07:04:38;7.67;;;3.47;;
8704;SDS011;4389;41.932;25.904;2022-12-11T07:07:06;11.17;;;4.60;;
8704;SDS011;4389;41.932;25.904;2022-12-11T07:09:34;9.10;;;5.00;;
8704;SDS011;4389;41.932;25.904;2022-12-11T07:12:02;16.40;;;5.47;;
8704;SDS011;4389;41.932;25.904;2022-12-11T07:14:30;18.03;;;5.80;;
8704;SDS011;4389;41.932;25.904;2022-12-11T07:16:58;14.20;;;6.53;;
8704;SDS011;4389;41.932;25.904;2022-12-11T07:19:25;12.03;;;5.20;;
8704;SDS011;4389;41.932;25.904;2022-12-11T07:21:52;9.77;;;3.30;;
8704;SDS011;4389;41.932;25.904;2022-12-11T07:24:19;6.80;;;2.97;;
8704;SDS011;4389;41.932;25.904;2022-12-11T07:26:47;6.70;;;3.27;;
8704;SDS011;4389;41.932;25.904;2022-12-11T07:29:14;10.80;;;3.80;;
8704;SDS011;4389;41.932;25.904;2022-12-11T07:31:41;9.67;;;3.47;;
8704;SDS011;4389;41.932;25.904;2022-12-11T07:34:10;5.20;;;2.10;;
8704;SDS011;4389;41.932;25.904;2022-12-11T07:36:38;6.77;;;2.30;;
8704;SDS011;4389;41.932;25.904;2022-12-11T07:39:05;6.13;;;2.93;;
8704;SDS011;4389;41.932;25.904;2022-12-11T07:41:33;7.20;;;1.90;;
8704;SDS011;4389;41.932;25.904;2022-12-11T07:44:01;7.33;;;2.07;;
8704;SDS011;4389;41.932;25.904;2022-12-11T07:46:29;6.90;;;2.70;;
8704;SDS011;4389;41.932;25.904;2022-12-11T07:48:57;4.90;;;2.00;;
8704;SDS011;4389;41.932;25.904;2022-12-11T07:51:25;7.27;;;3.33;;
8704;SDS011;4389;41.932;25.904;2022-12-11T07:53:54;9.20;;;4.23;;
8704;SDS011;4389;41.932;25.904;2022-12-11T07:56:22;7.30;;;3.67;;
8704;SDS011;4389;41.932;25.904;2022-12-11T07:58:49;4.60;;;2.40;;
8704;SDS011;4389;41.932;25.904;2022-12-11T08:01:18;10.60;;;2.90;;
8704;SDS011;4389;41.932;25.904;2022-12-11T08:03:46;9.97;;;3.40;;
8704;SDS011;4389;41.932;25.904;2022-12-11T08:06:13;7.83;;;3.57;;
8704;SDS011;4389;41.932;25.904;2022-12-11T08:08:41;8.43;;;3.37;;
8704;SDS011;4389;41.932;25.904;2022-12-11T08:11:08;13.77;;;3.30;;
8704;SDS011;4389;41.932;25.904;2022-12-11T08:13:36;15.07;;;3.57;;
8704;SDS011;4389;41.932;25.904;2022-12-11T08:16:03;12.50;;;4.13;;
8704;SDS011;4389;41.932;25.904;2022-12-11T08:18:33;15.83;;;3.93;;
8704;SDS011;4389;41.932;25.904;2022-12-11T08:21:03;15.63;;;4.23;;
8704;SDS011;4389;41.932;25.904;2022-12-11T08:23:31;21.20;;;5.17;;
8704;SDS011;4389;41.932;25.904;2022-12-11T08:25:58;18.67;;;5.30;;
8704;SDS011;4389;41.932;25.904;2022-12-11T08:28:24;21.10;;;6.57;;
8704;SDS011;4389;41.932;25.904;2022-12-11T08:30:51;23.20;;;5.67;;
8704;SDS011;4389;41.932;25.904;2022-12-11T08:33:18;17.33;;;6.83;;
8704;SDS011;4389;41.932;25.904;2022-12-11T08:35:46;18.83;;;6.67;;
8704;SDS011;4389;41.932;25.904;2022-12-11T08:38:13;21.33;;;6.40;;
8704;SDS011;4389;41.932;25.904;2022-12-11T08:40:40;18.93;;;9.00;;
8704;SDS011;4389;41.932;25.904;2022-12-11T08:43:07;18.67;;;6.20;;
8704;SDS011;4389;41.932;25.904;2022-12-11T08:45:34;17.57;;;6.17;;
8704;SDS011;4389;41.932;25.904;2022-12-11T08:48:01;17.87;;;6.40;;
8704;SDS011;4389;41.932;25.904;2022-12-11T08:50:28;20.93;;;7.50;;
8704;SDS011;4389;41.932;25.904;2022-12-11T08:52:56;16.03;;;4.83;;
8704;SDS011;4389;41.932;25.904;2022-12-11T08:55:23;17.63;;;5.20;;
8704;SDS011;4389;41.932;25.904;2022-12-11T08:57:50;18.83;;;5.30;;
8704;SDS011;4389;41.932;25.904;2022-12-11T09:00:16;17.73;;;5.17;;
8704;SDS011;4389;41.932;25.904;2022-12-11T09:02:43;20.50;;;4.30;;
8704;SDS011;4389;41.932;25.904;2022-12-11T09:05:10;17.63;;;6.13;;
8704;SDS011;4389;41.932;25.904;2022-12-11T09:07:37;12.83;;;3.80;;
8704;SDS011;4389;41.932;25.904;2022-12-11T09:10:07;14.10;;;4.40;;
8704;SDS011;4389;41.932;25.904;2022-12-11T09:12:35;11.60;;;3.87;;
8704;SDS011;4389;41.932;25.904;2022-12-11T09:15:02;15.97;;;4.73;;
8704;SDS011;4389;41.932;25.904;2022-12-11T09:17:29;13.30;;;5.47;;
8704;SDS011;4389;41.932;25.904;2022-12-11T09:19:56;12.43;;;3.47;;
8704;SDS011;4389;41.932;25.904;2022-12-11T09:22:23;14.50;;;4.67;;
8704;SDS011;4389;41.932;25.904;2022-12-11T09:24:50;15.70;;;5.00;;
8704;SDS011;4389;41.932;25.904;2022-12-11T09:27:18;18.93;;;3.93;;
8704;SDS011;4389;41.932;25.904;2022-12-11T09:29:46;15.10;;;3.47;;
8704;SDS011;4389;41.932;25.904;2022-12-11T09:32:13;18.33;;;5.80;;
8704;SDS011;4389;41.932;25.904;2022-12-11T09:34:40;15.30;;;5.93;;
8704;SDS011;4389;41.932;25.904;2022-12-11T09:37:07;9.77;;;4.07;;
8704;SDS011;4389;41.932;25.904;2022-12-11T09:39:34;14.77;;;4.53;;
8704;SDS011;4389;41.932;25.904;2022-12-11T09:42:02;14.10;;;3.80;;
8704;SDS011;4389;41.932;25.904;2022-12-11T09:44:38;15.40;;;4.70;;
8704;SDS011;4389;41.932;25.904;2022-12-11T09:50:02;15.57;;;4.20;;
8704;SDS011;4389;41.932;25.904;2022-12-11T09:52:36;16.00;;;4.37;;
8704;SDS011;4389;41.932;25.904;2022-12-11T09:55:12;16.60;;;4.53;;
8704;SDS011;4389;41.932;25.904;2022-12-11T09:57:45;17.07;;;5.60;;
8704;SDS011;4389;41.932;25.904;2022-12-11T10:00:20;17.50;;;4.23;;
8704;SDS011;4389;41.932;25.904;2022-12-11T10:03:05;19.90;;;5.03;;
8704;SDS011;4389;41.932;25.904;2022-12-11T10:05:46;22.40;;;4.80;;
8704;SDS011;4389;41.932;25.904;2022-12-11T10:08:22;18.40;;;4.97;;
8704;SDS011;4389;41.932;25.904;2022-12-11T10:10:57;25.87;;;6.50;;
8704;SDS011;4389;41.932;25.904;2022-12-11T10:13:34;19.80;;;5.27;;
8704;SDS011;4389;41.932;25.904;2022-12-11T10:16:12;24.90;;;5.80;;
8704;SDS011;4389;41.932;25.904;2022-12-11T10:18:47;18.83;;;5.20;;
8704;SDS011;4389;41.932;25.904;2022-12-11T10:21:14;20.70;;;5.10;;
8704;SDS011;4389;41.932;25.904;2022-12-11T10:23:45;20.07;;;4.83;;
8704;SDS011;4389;41.932;25.904;2022-12-11T10:26:18;25.53;;;5.83;;
8704;SDS011;4389;41.932;25.904;2022-12-11T10:28:46;22.17;;;5.13;;
8704;SDS011;4389;41.932;25.904;2022-12-11T10:31:16;26.87;;;6.90;;
8704;SDS011;4389;41.932;25.904;2022-12-11T10:33:48;29.50;;;6.33;;
8704;SDS011;4389;41.932;25.904;2022-12-11T10:36:25;29.13;;;7.43;;
8704;SDS011;4389;41.932;25.904;2022-12-11T10:38:54;20.87;;;5.57;;
8704;SDS011;4389;41.932;25.904;2022-12-11T10:41:22;22.37;;;5.87;;
8704;SDS011;4389;41.932;25.904;2022-12-11T10:43:54;17.30;;;5.27;;
8704;SDS011;4389;41.932;25.904;2022-12-11T10:46:23;31.30;;;7.37;;
8704;SDS011;4389;41.932;25.904;2022-12-11T10:48:52;20.40;;;5.83;;
8704;SDS011;4389;41.932;25.904;2022-12-11T10:51:21;30.00;;;7.00;;
8704;SDS011;4389;41.932;25.904;2022-12-11T10:53:51;19.77;;;5.13;;
8704;SDS011;4389;41.932;25.904;2022-12-11T10:56:24;19.93;;;5.90;;
8704;SDS011;4389;41.932;25.904;2022-12-11T10:58:52;18.87;;;5.27;;
8704;SDS011;4389;41.932;25.904;2022-12-11T11:01:23;24.50;;;5.47;;
8704;SDS011;4389;41.932;25.904;2022-12-11T11:03:53;26.80;;;6.77;;
8704;SDS011;4389;41.932;25.904;2022-12-11T11:06:22;22.27;;;6.57;;
8704;SDS011;4389;41.932;25.904;2022-12-11T11:08:50;24.80;;;7.23;;
8704;SDS011;4389;41.932;25.904;2022-12-11T11:11:20;22.57;;;7.13;;
8704;SDS011;4389;41.932;25.904;2022-12-11T11:13:51;18.93;;;6.87;;
8704;SDS011;4389;41.932;25.904;2022-12-11T11:16:30;24.67;;;7.30;;
8704;SDS011;4389;41.932;25.904;2022-12-11T11:19:01;17.13;;;5.53;;
8704;SDS011;4389;41.932;25.904;2022-12-11T11:21:27;25.53;;;5.83;;
8704;SDS011;4389;41.932;25.904;2022-12-11T11:23:56;23.33;;;5.03;;
8704;SDS011;4389;41.932;25.904;2022-12-11T11:26:23;21.17;;;4.93;;
8704;SDS011;4389;41.932;25.904;2022-12-11T11:28:51;15.20;;;5.37;;
8704;SDS011;4389;41.932;25.904;2022-12-11T11:31:20;18.00;;;4.90;;
8704;SDS011;4389;41.932;25.904;2022-12-11T11:33:58;21.37;;;5.00;;
8704;SDS011;4389;41.932;25.904;2022-12-11T11:36:29;15.70;;;5.00;;
8704;SDS011;4389;41.932;25.904;2022-12-11T11:39:02;26.97;;;5.93;;
8704;SDS011;4389;41.932;25.904;2022-12-11T11:41:42;25.77;;;5.70;;
8704;SDS011;4389;41.932;25.904;2022-12-11T11:44:14;18.43;;;4.20;;
8704;SDS011;4389;41.932;25.904;2022-12-11T11:46:46;18.43;;;5.73;;
8704;SDS011;4389;41.932;25.904;2022-12-11T11:49:21;27.60;;;5.53;;
8704;SDS011;4389;41.932;25.904;2022-12-11T11:51:54;22.33;;;6.20;;
8704;SDS011;4389;41.932;25.904;2022-12-11T11:54:28;21.10;;;5.37;;
8704;SDS011;4389;41.932;25.904;2022-12-11T11:56:58;25.33;;;6.03;;
8704;SDS011;4389;41.932;25.904;2022-12-11T11:59:31;18.57;;;5.57;;
8704;SDS011;4389;41.932;25.904;2022-12-11T12:02:08;22.63;;;5.17;;
8704;SDS011;4389;41.932;25.904;2022-12-11T12:04:41;23.27;;;5.33;;
8704;SDS011;4389;41.932;25.904;2022-12-11T12:07:22;16.97;;;4.50;;
8704;SDS011;4389;41.932;25.904;2022-12-11T12:09:57;25.17;;;5.93;;
8704;SDS011;4389;41.932;25.904;2022-12-11T12:12:31;21.73;;;5.30;;
8704;SDS011;4389;41.932;25.904;2022-12-11T12:15:12;26.90;;;7.47;;
8704;SDS011;4389;41.932;25.904;2022-12-11T12:17:47;28.03;;;6.83;;
8704;SDS011;4389;41.932;25.904;2022-12-11T12:20:21;27.97;;;5.90;;
8704;SDS011;4389;41.932;25.904;2022-12-11T12:22:59;19.83;;;5.40;;
8704;SDS011;4389;41.932;25.904;2022-12-11T12:25:39;18.77;;;4.70;;
8704;SDS011;4389;41.932;25.904;2022-12-11T12:28:15;25.03;;;5.50;;
8704;SDS011;4389;41.932;25.904;2022-12-11T12:30:57;20.53;;;4.63;;
8704;SDS011;4389;41.932;25.904;2022-12-11T12:33:37;19.30;;;5.03;;
8704;SDS011;4389;41.932;25.904;2022-12-11T12:36:21;19.47;;;5.30;;
8704;SDS011;4389;41.932;25.904;2022-12-11T12:38:53;24.03;;;5.43;;
8704;SDS011;4389;41.932;25.904;2022-12-11T12:41:28;22.00;;;5.40;;
8704;SDS011;4389;41.932;25.904;2022-12-11T12:44:09;18.50;;;4.93;;
8704;SDS011;4389;41.932;25.904;2022-12-11T12:46:48;21.13;;;5.77;;
8704;SDS011;4389;41.932;25.904;2022-12-11T12:49:24;15.27;;;3.83;;
8704;SDS011;4389;41.932;25.904;2022-12-11T12:52:04;17.93;;;5.00;;
8704;SDS011;4389;41.932;25.904;2022-12-11T12:54:35;11.70;;;3.90;;
8704;SDS011;4389;41.932;25.904;2022-12-11T12:57:04;19.27;;;4.83;;
8704;SDS011;4389;41.932;25.904;2022-12-11T12:59:32;22.70;;;4.03;;
8704;SDS011;4389;41.932;25.904;2022-12-11T13:01:59;16.07;;;3.47;;
8704;SDS011;4389;41.932;25.904;2022-12-11T13:04:33;16.23;;;3.97;;
8704;SDS011;4389;41.932;25.904;2022-12-11T13:07:16;14.13;;;3.83;;
8704;SDS011;4389;41.932;25.904;2022-12-11T13:09:57;19.67;;;4.40;;
8704;SDS011;4389;41.932;25.904;2022-12-11T13:12:31;17.33;;;4.07;;
8704;SDS011;4389;41.932;25.904;2022-12-11T13:18:01;15.37;;;3.90;;
8704;SDS011;4389;41.932;25.904;2022-12-11T13:20:30;12.33;;;3.33;;
8704;SDS011;4389;41.932;25.904;2022-12-11T13:23:13;12.43;;;3.47;;
8704;SDS011;4389;41.932;25.904;2022-12-11T13:25:47;11.40;;;3.10;;
8704;SDS011;4389;41.932;25.904;2022-12-11T13:28:24;19.03;;;5.10;;
8704;SDS011;4389;41.932;25.904;2022-12-11T13:31:00;17.00;;;4.93;;
8704;SDS011;4389;41.932;25.904;2022-12-11T13:33:29;20.53;;;5.50;;
8704;SDS011;4389;41.932;25.904;2022-12-11T13:36:05;30.70;;;7.10;;
8704;SDS011;4389;41.932;25.904;2022-12-11T13:38:51;17.67;;;5.63;;
8704;SDS011;4389;41.932;25.904;2022-12-11T13:41:20;15.93;;;5.03;;
8704;SDS011;4389;41.932;25.904;2022-12-11T13:43:48;16.10;;;4.30;;
8704;SDS011;4389;41.932;25.904;2022-12-11T13:46:18;13.00;;;3.93;;
8704;SDS011;4389;41.932;25.904;2022-12-11T13:48:50;22.67;;;4.30;;
8704;SDS011;4389;41.932;25.904;2022-12-11T13:51:22;15.83;;;4.50;;
8704;SDS011;4389;41.932;25.904;2022-12-11T13:54:02;15.80;;;4.00;;
8704;SDS011;4389;41.932;25.904;2022-12-11T13:56:39;21.23;;;4.27;;
8704;SDS011;4389;41.932;25.904;2022-12-11T13:59:18;18.83;;;4.93;;
8704;SDS011;4389;41.932;25.904;2022-12-11T14:01:48;17.50;;;4.60;;
8704;SDS011;4389;41.932;25.904;2022-12-11T14:04:16;17.47;;;5.23;;
8704;SDS011;4389;41.932;25.904;2022-12-11T14:06:46;17.20;;;4.67;;
8704;SDS011;4389;41.932;25.904;2022-12-11T14:09:16;15.93;;;5.70;;
8704;SDS011;4389;41.932;25.904;2022-12-11T14:11:46;18.80;;;6.07;;
8704;SDS011;4389;41.932;25.904;2022-12-11T14:14:16;17.93;;;6.30;;
8704;SDS011;4389;41.932;25.904;2022-12-11T14:16:46;22.67;;;6.33;;
8704;SDS011;4389;41.932;25.904;2022-12-11T14:19:15;20.40;;;6.70;;
8704;SDS011;4389;41.932;25.904;2022-12-11T14:21:53;19.23;;;6.07;;
8704;SDS011;4389;41.932;25.904;2022-12-11T14:24:23;22.60;;;6.97;;
8704;SDS011;4389;41.932;25.904;2022-12-11T14:26:50;21.00;;;5.60;;
8704;SDS011;4389;41.932;25.904;2022-12-11T14:29:22;20.53;;;8.27;;
8704;SDS011;4389;41.932;25.904;2022-12-11T14:31:54;22.63;;;7.10;;
8704;SDS011;4389;41.932;25.904;2022-12-11T14:34:25;25.77;;;6.87;;
8704;SDS011;4389;41.932;25.904;2022-12-11T14:36:57;17.10;;;4.73;;
8704;SDS011;4389;41.932;25.904;2022-12-11T14:39:27;18.80;;;5.63;;
8704;SDS011;4389;41.932;25.904;2022-12-11T14:42:00;29.23;;;5.30;;
8704;SDS011;4389;41.932;25.904;2022-12-11T14:44:32;16.20;;;5.50;;
8704;SDS011;4389;41.932;25.904;2022-12-11T14:47:14;20.30;;;6.40;;
8704;SDS011;4389;41.932;25.904;2022-12-11T14:49:45;14.80;;;4.50;;
8704;SDS011;4389;41.932;25.904;2022-12-11T14:52:17;20.17;;;5.23;;
8704;SDS011;4389;41.932;25.904;2022-12-11T14:54:49;16.90;;;4.43;;
8704;SDS011;4389;41.932;25.904;2022-12-11T14:57:21;11.67;;;3.90;;
8704;SDS011;4389;41.932;25.904;2022-12-11T14:59:51;14.57;;;5.10;;
8704;SDS011;4389;41.932;25.904;2022-12-11T15:02:21;14.40;;;5.30;;
8704;SDS011;4389;41.932;25.904;2022-12-11T15:05:02;16.43;;;6.83;;
8704;SDS011;4389;41.932;25.904;2022-12-11T15:07:38;19.73;;;6.43;;
8704;SDS011;4389;41.932;25.904;2022-12-11T15:10:21;18.63;;;6.23;;
8704;SDS011;4389;41.932;25.904;2022-12-11T15:12:49;21.97;;;5.53;;